RYR235 LPPR-LPFR
Flight info
| Callsign | RYR235 |
|---|---|
| Flight time | 0h 53m |
| Altitude | 29000 |
| Route | MANIK DCT INBOM DCT ALAGU |
| Aircraft | B38M/M-SDE1FGHILORVWXY/HB1 |
Departure
| Time | 2026-05-04 16:28 |
|---|---|
| Airport | Francisco de Sá Carneiro Airport (LPPR) |
Arrival
| Time | 2026-05-04 17:21 |
|---|---|
| Airport | Faro - Gago Coutinho International Airport (LPFR) |
| Time | Latitude | Longitude | Altitude | Speed | Heading |
|---|---|---|---|---|---|
| 2026-05-04 15:57 | 41.23640 | -8.67244 | 243 ft | 0 kts | 79° |
| 2026-05-04 16:15 | 41.23636 | -8.67281 | 243 ft | 2 kts | 89° |
| 2026-05-04 16:16 | 41.23642 | -8.67323 | 243 ft | 2 kts | 123° |
| 2026-05-04 16:16 | 41.23669 | -8.67347 | 243 ft | 0 kts | 166° |
| 2026-05-04 16:20 | 41.23644 | -8.67394 | 240 ft | 12 kts | 256° |
| 2026-05-04 16:20 | 41.23603 | -8.67663 | 238 ft | 11 kts | 259° |
| 2026-05-04 16:21 | 41.23602 | -8.67674 | 236 ft | 0 kts | 259° |
| 2026-05-04 16:24 | 41.23602 | -8.67806 | 232 ft | 1 kts | 328° |
| 2026-05-04 16:25 | 41.23611 | -8.67810 | 231 ft | 0 kts | 346° |
| 2026-05-04 16:26 | 41.23729 | -8.67842 | 226 ft | 55 kts | 348° |
| 2026-05-04 16:27 | 41.25460 | -8.68285 | 476 ft | 180 kts | 346° |
| 2026-05-04 16:28 | 41.29531 | -8.69355 | 2700 ft | 178 kts | 343° |
| 2026-05-04 16:28 | 41.33460 | -8.70401 | 3584 ft | 216 kts | 345° |
| 2026-05-04 16:29 | 41.39947 | -8.72667 | 6281 ft | 255 kts | 321° |
| 2026-05-04 16:30 | 41.41328 | -8.79148 | 8639 ft | 268 kts | 250° |
| 2026-05-04 16:31 | 41.38589 | -8.82415 | 10215 ft | 288 kts | 193° |
| 2026-05-04 16:31 | 41.32552 | -8.79420 | 11574 ft | 337 kts | 155° |
| 2026-05-04 16:32 | 41.25713 | -8.76637 | 13490 ft | 351 kts | 170° |
| 2026-05-04 16:33 | 41.20958 | -8.74791 | 14697 ft | 361 kts | 167° |
| 2026-05-04 16:33 | 41.16088 | -8.72934 | 15917 ft | 367 kts | 169° |
| 2026-05-04 16:34 | 41.11134 | -8.71062 | 17153 ft | 373 kts | 168° |
| 2026-05-04 16:34 | 41.08636 | -8.70103 | 17791 ft | 375 kts | 169° |
| 2026-05-04 16:35 | 41.01019 | -8.67225 | 19401 ft | 383 kts | 169° |
| 2026-05-04 16:35 | 40.93197 | -8.64267 | 20912 ft | 392 kts | 170° |
| 2026-05-04 16:36 | 40.90577 | -8.63279 | 21400 ft | 394 kts | 170° |
| 2026-05-04 16:36 | 40.85262 | -8.61276 | 22362 ft | 400 kts | 171° |
| 2026-05-04 16:37 | 40.79872 | -8.59249 | 23273 ft | 406 kts | 171° |
| 2026-05-04 16:37 | 40.77150 | -8.58225 | 23759 ft | 406 kts | 171° |
| 2026-05-04 16:37 | 40.71726 | -8.56186 | 24768 ft | 404 kts | 171° |
| 2026-05-04 16:38 | 40.66327 | -8.54166 | 25726 ft | 403 kts | 172° |
| 2026-05-04 16:39 | 40.58255 | -8.51148 | 27092 ft | 401 kts | 172° |
| 2026-05-04 16:39 | 40.52889 | -8.49146 | 27982 ft | 401 kts | 172° |
| 2026-05-04 16:40 | 40.47532 | -8.47151 | 28860 ft | 400 kts | 173° |
| 2026-05-04 16:40 | 40.42220 | -8.45173 | 29051 ft | 394 kts | 173° |
| 2026-05-04 16:41 | 40.29096 | -8.40310 | 29069 ft | 392 kts | 173° |
| 2026-05-04 16:43 | 40.15982 | -8.35467 | 29071 ft | 391 kts | 173° |
| 2026-05-04 16:43 | 40.08121 | -8.32573 | 29063 ft | 391 kts | 173° |
| 2026-05-04 16:45 | 39.92386 | -8.26802 | 29054 ft | 391 kts | 173° |
| 2026-05-04 16:46 | 39.79268 | -8.22012 | 29053 ft | 392 kts | 173° |
| 2026-05-04 16:47 | 39.68806 | -8.18206 | 29041 ft | 391 kts | 173° |
| 2026-05-04 16:48 | 39.58316 | -8.14401 | 29033 ft | 391 kts | 173° |
| 2026-05-04 16:49 | 39.47824 | -8.10608 | 29038 ft | 392 kts | 173° |
| 2026-05-04 16:50 | 39.38207 | -8.07140 | 29030 ft | 392 kts | 173° |
| 2026-05-04 16:51 | 39.30333 | -8.04309 | 29029 ft | 392 kts | 173° |
| 2026-05-04 16:52 | 39.19821 | -8.00539 | 29041 ft | 392 kts | 173° |
| 2026-05-04 16:53 | 39.11942 | -7.97722 | 29028 ft | 392 kts | 173° |
| 2026-05-04 16:54 | 39.01431 | -7.93973 | 29023 ft | 392 kts | 173° |
| 2026-05-04 16:55 | 38.85639 | -7.88363 | 28990 ft | 392 kts | 173° |
| 2026-05-04 16:56 | 38.72434 | -7.83692 | 29018 ft | 394 kts | 173° |
| 2026-05-04 16:57 | 38.64519 | -7.80900 | 29016 ft | 393 kts | 173° |
| 2026-05-04 16:58 | 38.56564 | -7.78100 | 28768 ft | 392 kts | 172° |
| 2026-05-04 16:58 | 38.53974 | -7.77189 | 28576 ft | 391 kts | 172° |
| 2026-05-04 16:59 | 38.48702 | -7.75341 | 28196 ft | 390 kts | 172° |
| 2026-05-04 17:00 | 38.38231 | -7.71675 | 27415 ft | 392 kts | 172° |
| 2026-05-04 17:00 | 38.30314 | -7.68909 | 26895 ft | 394 kts | 172° |
| 2026-05-04 17:01 | 38.25032 | -7.67069 | 26553 ft | 394 kts | 172° |
| 2026-05-04 17:01 | 38.19741 | -7.65227 | 26210 ft | 394 kts | 172° |
| 2026-05-04 17:02 | 38.14440 | -7.63386 | 25759 ft | 395 kts | 172° |
| 2026-05-04 17:02 | 38.09128 | -7.61605 | 25066 ft | 391 kts | 178° |
| 2026-05-04 17:03 | 38.06460 | -7.61430 | 24746 ft | 382 kts | 187° |
| 2026-05-04 17:03 | 38.03800 | -7.61443 | 24403 ft | 382 kts | 187° |
| 2026-05-04 17:03 | 37.98473 | -7.61463 | 23727 ft | 384 kts | 187° |
| 2026-05-04 17:04 | 37.93127 | -7.61454 | 22911 ft | 385 kts | 186° |
| 2026-05-04 17:04 | 37.87769 | -7.61461 | 22129 ft | 385 kts | 186° |
| 2026-05-04 17:05 | 37.82439 | -7.61458 | 21359 ft | 381 kts | 186° |
| 2026-05-04 17:05 | 37.77154 | -7.61462 | 20605 ft | 378 kts | 186° |
| 2026-05-04 17:06 | 37.71916 | -7.61462 | 19873 ft | 374 kts | 186° |
| 2026-05-04 17:06 | 37.69319 | -7.61463 | 19501 ft | 372 kts | 186° |
| 2026-05-04 17:07 | 37.64162 | -7.61465 | 18790 ft | 369 kts | 186° |
| 2026-05-04 17:07 | 37.62464 | -7.61466 | 18562 ft | 368 kts | 186° |
| 2026-05-04 17:07 | 37.59053 | -7.61467 | 18057 ft | 365 kts | 186° |
| 2026-05-04 17:07 | 37.56514 | -7.61467 | 17659 ft | 364 kts | 186° |
| 2026-05-04 17:08 | 37.53991 | -7.61468 | 17252 ft | 362 kts | 185° |
| 2026-05-04 17:08 | 37.48977 | -7.61470 | 16486 ft | 359 kts | 185° |
| 2026-05-04 17:08 | 37.46483 | -7.61471 | 16006 ft | 357 kts | 185° |
| 2026-05-04 17:09 | 37.43981 | -7.61470 | 15263 ft | 347 kts | 185° |
| 2026-05-04 17:09 | 37.41614 | -7.61467 | 14516 ft | 337 kts | 185° |
| 2026-05-04 17:09 | 37.39247 | -7.61474 | 13799 ft | 337 kts | 185° |
| 2026-05-04 17:10 | 37.34631 | -7.61476 | 12233 ft | 328 kts | 184° |
| 2026-05-04 17:10 | 37.28240 | -7.61473 | 9929 ft | 285 kts | 185° |
| 2026-05-04 17:11 | 37.26262 | -7.61479 | 8855 ft | 283 kts | 184° |
| 2026-05-04 17:11 | 37.24279 | -7.61480 | 7833 ft | 280 kts | 184° |
| 2026-05-04 17:11 | 37.20480 | -7.61481 | 6215 ft | 264 kts | 182° |
| 2026-05-04 17:12 | 37.18661 | -7.61479 | 5423 ft | 259 kts | 183° |
| 2026-05-04 17:12 | 37.15148 | -7.61481 | 4518 ft | 256 kts | 182° |
| 2026-05-04 17:13 | 37.09779 | -7.61481 | 3997 ft | 256 kts | 184° |
| 2026-05-04 17:14 | 37.04984 | -7.63276 | 3994 ft | 241 kts | 208° |
| 2026-05-04 17:14 | 37.03444 | -7.64142 | 4005 ft | 239 kts | 207° |
| 2026-05-04 17:14 | 37.00392 | -7.65816 | 3997 ft | 239 kts | 206° |
| 2026-05-04 17:15 | 36.98941 | -7.66689 | 3989 ft | 221 kts | 220° |
| 2026-05-04 17:15 | 36.97685 | -7.69791 | 3983 ft | 193 kts | 276° |
| 2026-05-04 17:16 | 36.98058 | -7.72967 | 3710 ft | 177 kts | 285° |
| 2026-05-04 17:16 | 36.98794 | -7.78047 | 2937 ft | 214 kts | 282° |
| 2026-05-04 17:17 | 36.99036 | -7.79765 | 2663 ft | 182 kts | 283° |
| 2026-05-04 17:17 | 36.99604 | -7.83734 | 2031 ft | 145 kts | 285° |
| 2026-05-04 17:18 | 36.99783 | -7.84983 | 1837 ft | 145 kts | 284° |
| 2026-05-04 17:18 | 37.00131 | -7.87416 | 1445 ft | 133 kts | 287° |
| 2026-05-04 17:19 | 37.00458 | -7.89658 | 1101 ft | 127 kts | 282° |
| 2026-05-04 17:19 | 37.00774 | -7.91890 | 767 ft | 124 kts | 281° |
| 2026-05-04 17:20 | 37.01081 | -7.94020 | 428 ft | 120 kts | 277° |
| 2026-05-04 17:20 | 37.01395 | -7.96119 | 54 ft | 126 kts | 277° |
| 2026-05-04 17:20 | 37.01520 | -7.97095 | 21 ft | 88 kts | 279° |
| 2026-05-04 17:21 | 37.01644 | -7.97851 | 20 ft | 13 kts | 329° |
| 2026-05-04 17:21 | 37.01693 | -7.97843 | 21 ft | 0 kts | 30° |